createdAt,value
2023-02-14T00:14:20.052Z,949.06
2023-02-14T00:29:22.278Z,948.98
2023-02-14T00:44:24.721Z,949.23
2023-02-14T00:59:26.962Z,949.14
2023-02-14T01:14:29.360Z,949.11
2023-02-14T01:29:31.643Z,949.03
2023-02-14T01:44:33.903Z,949.21
2023-02-14T01:59:36.120Z,949.25
2023-02-14T02:14:38.384Z,949.37
2023-02-14T02:29:40.611Z,949.54
2023-02-14T02:44:42.830Z,949.66
2023-02-14T03:14:51.231Z,949.93
2023-02-14T03:29:53.475Z,949.89
2023-02-14T03:44:55.817Z,950.01
2023-02-14T03:59:58.250Z,950.04
2023-02-14T04:15:00.508Z,950.04
2023-02-14T04:30:02.878Z,950.02
2023-02-14T04:45:05.157Z,950.12
2023-02-14T05:00:07.519Z,950.26
2023-02-14T05:15:09.792Z,950.37
2023-02-14T05:30:12.581Z,950.56
2023-02-14T05:45:15.036Z,950.82
2023-02-14T06:00:17.295Z,951
2023-02-14T06:15:19.537Z,951.14
2023-02-14T06:30:21.892Z,951.27
2023-02-14T06:45:24.234Z,951.53
2023-02-14T07:00:26.627Z,951.77
2023-02-14T07:15:29.346Z,951.9
2023-02-14T07:30:31.686Z,951.93
2023-02-14T07:45:33.987Z,952.09
2023-02-14T08:00:36.282Z,952.38
2023-02-14T08:15:38.479Z,952.76
2023-02-14T08:30:40.799Z,952.99
2023-02-14T08:45:43.303Z,953.12
2023-02-14T09:00:45.628Z,953.31
2023-02-14T09:15:48.139Z,953.46
2023-02-14T09:30:52.233Z,953.65
2023-02-14T09:45:55.926Z,953.96
2023-02-14T10:00:58.733Z,954.13
2023-02-14T10:16:01.443Z,954.26
2023-02-14T10:31:04.024Z,954.32
2023-02-14T10:46:06.442Z,954.4
2023-02-14T11:01:08.821Z,954.67
2023-02-14T11:16:11.136Z,954.96
2023-02-14T11:31:13.511Z,955.23
2023-02-14T11:46:15.866Z,955.55
2023-02-14T12:01:18.193Z,955.83
2023-02-14T12:16:20.416Z,956.03
2023-02-14T12:31:22.713Z,956.3
2023-02-14T12:46:25.030Z,956.56
2023-02-14T13:01:28.797Z,956.83
2023-02-14T13:16:35.335Z,957.16
2023-02-14T13:31:37.783Z,957.49
2023-02-14T13:46:40.237Z,957.83
2023-02-14T14:01:42.574Z,958.09
2023-02-14T14:16:44.884Z,958.31
2023-02-14T14:31:47.300Z,958.57
2023-02-14T14:46:49.611Z,958.86
2023-02-14T15:01:51.868Z,959.19
2023-02-14T15:16:54.162Z,959.51
2023-02-14T15:31:56.863Z,959.87
2023-02-14T15:46:59.148Z,960.26
2023-02-14T16:02:01.700Z,960.54
2023-02-14T16:17:03.971Z,960.76
2023-02-14T16:32:15.615Z,961.03
2023-02-14T16:47:18.860Z,961.01
2023-02-14T17:02:21.305Z,961.62
2023-02-14T17:17:23.543Z,961.84
2023-02-14T17:32:25.903Z,962.01
2023-02-14T17:47:28.153Z,962.18
2023-02-14T18:02:30.382Z,962.32
2023-02-14T18:17:32.828Z,962.44
2023-02-14T18:32:35.066Z,962.49
2023-02-14T18:47:37.317Z,962.59
2023-02-14T19:02:39.563Z,962.6
2023-02-14T19:17:41.844Z,962.56
2023-02-14T19:32:44.088Z,962.37
2023-02-14T19:47:47.512Z,962.37
2023-02-14T20:02:49.890Z,962.34
2023-02-14T20:17:52.157Z,962.36
2023-02-14T20:32:54.465Z,962.41
2023-02-14T20:47:56.877Z,962.41
2023-02-14T21:02:59.483Z,962.55
2023-02-14T21:18:01.710Z,962.58
2023-02-14T21:33:04.002Z,962.66
2023-02-14T21:48:06.466Z,962.73
2023-02-14T22:03:08.706Z,962.86
2023-02-14T22:18:10.961Z,962.98
2023-02-14T22:33:13.195Z,963.08
2023-02-14T22:48:15.432Z,963.24
2023-02-14T23:03:17.644Z,963.46
2023-02-14T23:18:19.965Z,963.77
2023-02-14T23:33:22.238Z,963.89
2023-02-14T23:48:24.467Z,963.93
